createdAt,value
2022-09-04T00:01:02.743Z,101070.59
2022-09-04T00:03:32.978Z,101082.16
2022-09-04T00:06:03.634Z,101093.09
2022-09-04T00:08:41.261Z,101101.78
2022-09-04T00:11:11.479Z,101096.41
2022-09-04T00:13:42.783Z,101092.91
2022-09-04T00:16:12.520Z,101103.66
2022-09-04T00:18:41.499Z,101103.66
2022-09-04T00:21:15.894Z,101103.00
2022-09-04T00:23:47.413Z,101100.97
2022-09-04T00:26:20.880Z,101105.09
2022-09-04T00:28:49.285Z,101105.91
2022-09-04T00:31:20.787Z,101116.84
2022-09-04T00:33:50.270Z,101111.28
2022-09-04T00:36:19.082Z,101116.25
2022-09-04T00:38:48.497Z,101115.97
2022-09-04T00:41:19.607Z,101114.91
2022-09-04T00:44:07.099Z,101117.31
2022-09-04T00:46:46.356Z,101112.97
2022-09-04T00:49:23.029Z,101113.81
2022-09-04T00:51:56.535Z,101123.72
2022-09-04T00:54:33.810Z,101121.22
2022-09-04T00:57:29.179Z,101115.22
2022-09-04T01:00:02.267Z,101118.94
2022-09-04T01:02:34.955Z,101120.78
2022-09-04T01:05:07.303Z,101117.09
2022-09-04T01:07:44.192Z,101125.97
2022-09-04T01:10:24.799Z,101129.22
2022-09-04T01:12:56.905Z,101137.47
2022-09-04T01:15:26.744Z,101134.78
2022-09-04T01:17:59.959Z,101127.38
2022-09-04T01:20:31.016Z,101137.94
2022-09-04T01:23:12.222Z,101140.63
2022-09-04T01:26:00.784Z,101139.78
2022-09-04T01:28:29.699Z,101139.78
2022-09-04T01:31:01.096Z,101140.63
2022-09-04T01:33:31.411Z,101137.94
2022-09-04T01:36:02.078Z,101146.56
2022-09-04T01:38:33.132Z,101151.47
2022-09-04T01:41:03.962Z,101161.19
2022-09-04T01:43:30.451Z,101146.09
2022-09-04T01:46:05.352Z,101151.88
2022-09-04T01:48:36.273Z,101155.72
2022-09-04T01:51:06.109Z,101155.22
2022-09-04T01:53:36.951Z,101156.41
2022-09-04T01:56:08.478Z,101158.06
2022-09-04T01:58:41.135Z,101152.72
2022-09-04T02:01:13.158Z,101160.31
2022-09-04T02:03:45.440Z,101164.38
2022-09-04T02:06:15.879Z,101170.16
2022-09-04T02:08:46.779Z,101174.50
2022-09-04T02:11:16.265Z,101176.97
2022-09-04T02:13:47.287Z,101191.22
2022-09-04T02:16:16.848Z,101185.66
2022-09-04T02:18:50.045Z,101188.16
2022-09-04T02:21:19.623Z,101192.69
2022-09-04T02:23:49.391Z,101200.75
2022-09-04T02:26:20.299Z,101192.69
2022-09-04T02:28:52.344Z,101203.63
2022-09-04T02:31:23.305Z,101200.09
2022-09-04T02:33:52.548Z,101196.59
2022-09-04T02:36:22.635Z,101196.41
2022-09-04T02:38:54.466Z,101202.59
2022-09-04T02:41:24.758Z,101203.75
2022-09-04T02:43:57.630Z,101198.31
2022-09-04T02:46:27.527Z,101207.81
2022-09-04T02:48:57.986Z,101210.31
2022-09-04T02:51:32.698Z,101210.31
2022-09-04T02:54:02.490Z,101207.44
2022-09-04T02:56:35.730Z,101209.09
2022-09-04T02:59:10.827Z,101212.34
2022-09-04T03:01:45.426Z,101206.16
2022-09-04T03:04:18.063Z,101199.94
2022-09-04T03:06:49.783Z,101206.34
2022-09-04T03:09:19.298Z,101214.59
2022-09-04T03:11:50.282Z,101217.47
2022-09-04T03:14:20.823Z,101217.00
2022-09-04T03:16:50.235Z,101223.13
2022-09-04T03:19:19.431Z,101220.63
2022-09-04T03:21:48.807Z,101215.81
2022-09-04T03:24:17.864Z,101211.47
2022-09-04T03:26:47.028Z,101211.63
2022-09-04T03:29:21.832Z,101220.72
2022-09-04T03:31:51.019Z,101212.03
2022-09-04T03:34:26.209Z,101211.19
2022-09-04T03:37:03.550Z,101222.75
2022-09-04T03:39:35.698Z,101221.09
2022-09-04T03:42:06.540Z,101221.28
2022-09-04T03:44:42.324Z,101223.13
2022-09-04T03:47:15.091Z,101227.63
2022-09-04T03:49:48.046Z,101228.63
2022-09-04T03:52:20.048Z,101227.06
2022-09-04T03:54:53.846Z,101230.13
2022-09-04T03:57:29.907Z,101232.16
2022-09-04T04:00:06.238Z,101233.25
2022-09-04T04:02:41.147Z,101238.34
2022-09-04T04:05:20.071Z,101248.97
2022-09-04T04:07:54.152Z,101252.66
2022-09-04T04:10:25.106Z,101247.13
2022-09-04T04:13:02.134Z,101250.63
2022-09-04T04:15:41.119Z,101255.25
2022-09-04T04:18:15.083Z,101252.56
2022-09-04T04:20:44.795Z,101260.97
2022-09-04T04:23:22.809Z,101256.63
2022-09-04T04:25:54.739Z,101258.00
2022-09-04T04:28:33.343Z,101258.19
2022-09-04T04:31:06.131Z,101266.59
2022-09-04T04:33:40.362Z,101265.09
2022-09-04T04:36:12.151Z,101269.25
2022-09-04T04:38:52.764Z,101268.06
2022-09-04T04:41:35.073Z,101272.44
2022-09-04T04:44:06.967Z,101273.25
2022-09-04T04:46:43.147Z,101280.47
2022-09-04T04:49:18.699Z,101279.16
2022-09-04T04:51:59.476Z,101286.53
2022-09-04T04:54:32.303Z,101279.31
2022-09-04T04:57:01.320Z,101284.91
2022-09-04T04:59:30.736Z,101281.81
2022-09-04T05:02:03.056Z,101287.84
2022-09-04T05:04:37.562Z,101290.53
2022-09-04T05:07:08.715Z,101294.88
2022-09-04T05:09:39.825Z,101297.56
2022-09-04T05:12:09.118Z,101303.09
2022-09-04T05:14:39.641Z,101297.72
2022-09-04T05:17:14.015Z,101309.28
2022-09-04T05:19:45.127Z,101309.78
2022-09-04T05:22:15.416Z,101308.38
2022-09-04T05:24:47.136Z,101316.25
2022-09-04T05:27:26.351Z,101321.41
2022-09-04T05:29:58.191Z,101329.94
2022-09-04T05:32:28.831Z,101330.97
2022-09-04T05:35:06.612Z,101331.63
2022-09-04T05:37:37.927Z,101333.06
2022-09-04T05:40:06.818Z,101345.13
2022-09-04T05:42:42.682Z,101346.63
2022-09-04T05:45:12.588Z,101341.06
2022-09-04T05:47:43.198Z,101342.53
2022-09-04T05:50:24.382Z,101351.91
2022-09-04T05:53:04.829Z,101353.56
2022-09-04T05:55:49.227Z,101356.91
2022-09-04T05:58:26.928Z,101356.56
2022-09-04T06:00:57.148Z,101368.91
2022-09-04T06:03:32.748Z,101361.34
2022-09-04T06:06:11.051Z,101368.88
2022-09-04T06:09:01.461Z,101373.84
2022-09-04T06:11:36.290Z,101378.69
2022-09-04T06:14:09.327Z,101376.31
2022-09-04T06:16:43.018Z,101373.72
2022-09-04T06:19:19.648Z,101371.97
2022-09-04T06:22:03.759Z,101375.41
2022-09-04T06:24:42.628Z,101376.16
2022-09-04T06:27:17.489Z,101386.78
2022-09-04T06:29:57.745Z,101392.72
2022-09-04T06:32:35.330Z,101378.81
2022-09-04T06:35:21.458Z,101382.88
2022-09-04T06:37:53.350Z,101386.09
2022-09-04T06:40:28.115Z,101387.66
2022-09-04T06:43:05.311Z,101384.91
2022-09-04T06:45:39.215Z,101394.06
2022-09-04T06:48:10.185Z,101389.63
2022-09-04T06:50:44.325Z,101386.81
2022-09-04T06:53:26.467Z,101394.75
2022-09-04T06:56:07.114Z,101397.94
2022-09-04T06:58:44.635Z,101396.78
2022-09-04T07:01:13.197Z,101399.38
2022-09-04T07:03:44.308Z,101397.38
2022-09-04T07:06:15.235Z,101402.44
2022-09-04T07:08:48.709Z,101402.94
2022-09-04T07:11:19.867Z,101411.53
2022-09-04T07:13:52.049Z,101396.06
2022-09-04T07:16:33.269Z,101406.28
2022-09-04T07:19:05.971Z,101408.25
2022-09-04T07:21:38.280Z,101413.69
2022-09-04T07:24:08.766Z,101411.28
2022-09-04T07:26:38.210Z,101417.16
2022-09-04T07:29:25.126Z,101420.50
2022-09-04T07:31:56.267Z,101425.13
2022-09-04T07:34:25.636Z,101424.81
2022-09-04T07:36:55.114Z,101429.44
2022-09-04T07:39:25.185Z,101433.84
2022-09-04T07:41:55.910Z,101428.69
2022-09-04T07:44:23.914Z,101427.91
2022-09-04T07:46:54.974Z,101433.69
2022-09-04T07:49:23.988Z,101439.31
2022-09-04T07:51:56.406Z,101440.16
2022-09-04T07:54:46.886Z,101439.94
2022-09-04T07:57:20.746Z,101444.38
2022-09-04T08:00:00.566Z,101446.03
2022-09-04T08:02:31.119Z,101443.97
2022-09-04T08:05:05.642Z,101443.78
2022-09-04T08:07:48.697Z,101437.97
2022-09-04T08:10:24.431Z,101446.66
2022-09-04T08:12:59.434Z,101450.59
2022-09-04T08:15:30.117Z,101458.06
2022-09-04T08:18:04.792Z,101451.63
2022-09-04T08:20:38.603Z,101459.53
2022-09-04T08:23:12.579Z,101453.06
2022-09-04T08:25:46.373Z,101461.56
2022-09-04T08:28:19.723Z,101465.50
2022-09-04T08:30:51.277Z,101456.09
2022-09-04T08:33:27.365Z,101456.47
2022-09-04T08:35:55.867Z,101459.34
2022-09-04T08:38:30.343Z,101468.88
2022-09-04T08:41:09.710Z,101467.59
2022-09-04T08:43:53.586Z,101470.91
2022-09-04T08:46:41.293Z,101477.50
2022-09-04T08:49:17.039Z,101481.19
2022-09-04T08:52:01.366Z,101485.28
2022-09-04T08:54:47.984Z,101481.06
2022-09-04T08:57:29.183Z,101484.72
2022-09-04T09:00:06.947Z,101482.13
2022-09-04T09:03:04.823Z,101484.38
2022-09-04T09:05:59.262Z,101488.84
2022-09-04T09:08:44.427Z,101483.91
2022-09-04T09:11:34.287Z,101485.25
2022-09-04T09:16:36.388Z,101480.31
2022-09-04T09:19:09.515Z,101476.94
2022-09-04T09:21:41.787Z,101474.34
2022-09-04T09:24:35.041Z,101472.16
2022-09-04T09:27:12.038Z,101466.19
2022-09-04T09:29:50.821Z,101475.69
2022-09-04T09:32:44.039Z,101471.00
2022-09-04T09:35:38.459Z,101471.97
2022-09-04T09:38:19.671Z,101468.34
2022-09-04T09:41:03.285Z,101467.06
2022-09-04T09:43:56.811Z,101467.31
2022-09-04T09:46:35.576Z,101457.78
2022-09-04T09:49:26.131Z,101471.94
2022-09-04T09:52:08.293Z,101466.75
2022-09-04T09:54:53.099Z,101469.13
2022-09-04T09:57:34.291Z,101474.59
2022-09-04T10:00:05.806Z,101468.59
2022-09-04T10:03:00.034Z,101479.94
2022-09-04T10:05:50.486Z,101475.94
2022-09-04T10:08:35.686Z,101479.06
2022-09-04T10:11:16.496Z,101482.00
2022-09-04T10:13:51.006Z,101478.78
2022-09-04T10:16:35.230Z,101480.94
2022-09-04T10:19:14.895Z,101484.34
2022-09-04T10:21:57.295Z,101487.75
2022-09-04T10:24:35.623Z,101490.25
2022-09-04T10:27:28.518Z,101487.69
2022-09-04T10:30:04.405Z,101489.63
2022-09-04T10:32:38.830Z,101486.06
2022-09-04T10:35:15.961Z,101487.00
2022-09-04T10:37:53.422Z,101491.06
2022-09-04T10:40:25.515Z,101488.41
2022-09-04T10:43:00.331Z,101488.13
2022-09-04T10:45:30.109Z,101479.97
2022-09-04T10:48:17.435Z,101482.97
2022-09-04T10:50:59.844Z,101486.19
2022-09-04T10:53:36.986Z,101479.56
2022-09-04T10:56:10.631Z,101480.22
2022-09-04T10:58:51.822Z,101478.16
2022-09-04T11:01:29.387Z,101469.31
2022-09-04T11:04:01.770Z,101468.66
2022-09-04T11:06:52.072Z,101467.09
2022-09-04T11:09:30.488Z,101474.94
2022-09-04T11:12:12.151Z,101472.22
2022-09-04T11:14:58.482Z,101468.66
2022-09-04T11:17:38.248Z,101468.56
2022-09-04T11:20:21.807Z,101476.81
2022-09-04T11:23:06.834Z,101478.41
2022-09-04T11:25:54.374Z,101480.59
2022-09-04T11:28:47.652Z,101472.53
2022-09-04T11:31:31.064Z,101477.72
2022-09-04T11:34:16.023Z,101475.84
2022-09-04T11:36:53.327Z,101478.16
2022-09-04T11:39:37.330Z,101469.06
2022-09-04T11:42:15.411Z,101473.88
2022-09-04T11:44:51.545Z,101477.66
2022-09-04T11:47:37.230Z,101471.97
2022-09-04T11:50:14.203Z,101469.25
2022-09-04T11:52:50.056Z,101473.38
2022-09-04T11:55:24.214Z,101470.41
2022-09-04T11:58:09.270Z,101471.63
2022-09-04T12:00:40.637Z,101473.78
2022-09-04T12:03:24.798Z,101478.03
2022-09-04T12:06:09.962Z,101474.13
2022-09-04T12:09:09.310Z,101475.03
2022-09-04T12:11:56.418Z,101480.31
2022-09-04T12:14:33.606Z,101470.06
2022-09-04T12:17:21.331Z,101482.88
2022-09-04T12:19:57.459Z,101477.34
2022-09-04T12:22:42.038Z,101477.09
2022-09-04T12:25:29.776Z,101476.06
2022-09-04T12:28:05.868Z,101480.59
2022-09-04T12:30:42.722Z,101487.59
2022-09-04T12:33:19.020Z,101486.22
2022-09-04T12:35:52.149Z,101492.00
2022-09-04T12:38:37.424Z,101486.66
2022-09-04T12:41:09.291Z,101492.63
2022-09-04T12:43:42.693Z,101485.06
2022-09-04T12:46:15.189Z,101482.03
2022-09-04T12:48:47.619Z,101488.22
2022-09-04T12:51:15.099Z,101480.50
2022-09-04T12:53:59.156Z,101484.06
2022-09-04T12:56:33.856Z,101481.06
2022-09-04T12:59:11.503Z,101486.91
2022-09-04T13:01:48.847Z,101489.75
2022-09-04T13:04:20.934Z,101495.84
2022-09-04T13:06:53.509Z,101492.88
2022-09-04T13:09:24.228Z,101492.03
2022-09-04T13:11:59.239Z,101484.09
2022-09-04T13:14:43.388Z,101493.66
2022-09-04T13:17:18.274Z,101491.41
2022-09-04T13:19:50.310Z,101494.06
2022-09-04T13:22:24.264Z,101493.78
2022-09-04T13:24:56.467Z,101481.25
2022-09-04T13:27:29.769Z,101492.56
2022-09-04T13:30:03.563Z,101486.56
2022-09-04T13:32:45.088Z,101490.63
2022-09-04T13:35:19.722Z,101492.28
2022-09-04T13:37:56.367Z,101488.44
2022-09-04T13:40:32.667Z,101483.22
2022-09-04T13:43:14.297Z,101479.16
2022-09-04T13:45:43.799Z,101491.88
2022-09-04T13:48:11.948Z,101489.13
2022-09-04T13:50:44.451Z,101488.84
2022-09-04T13:53:14.261Z,101488.09
2022-09-04T13:55:42.527Z,101481.91
2022-09-04T13:58:18.923Z,101485.00
2022-09-04T14:00:47.720Z,101482.59
2022-09-04T14:03:17.515Z,101488.81
2022-09-04T14:05:44.386Z,101485.75
2022-09-04T14:08:14.420Z,101489.00
2022-09-04T14:10:57.219Z,101490.09
2022-09-04T14:13:35.040Z,101486.28
2022-09-04T14:16:05.219Z,101496.66
2022-09-04T14:18:46.473Z,101494.50
2022-09-04T14:21:18.379Z,101499.41
2022-09-04T14:23:50.239Z,101495.84
2022-09-04T14:26:23.654Z,101493.06
2022-09-04T14:28:58.119Z,101489.44
2022-09-04T14:31:28.747Z,101489.69
2022-09-04T14:34:06.584Z,101491.34
2022-09-04T14:36:35.433Z,101489.97
2022-09-04T14:39:16.194Z,101494.31
2022-09-04T14:42:03.426Z,101485.59
2022-09-04T14:44:41.423Z,101483.94
2022-09-04T14:47:12.475Z,101480.88
2022-09-04T14:49:41.377Z,101490.38
2022-09-04T14:52:15.182Z,101483.22
2022-09-04T14:54:41.757Z,101481.56
2022-09-04T14:57:12.725Z,101479.91
2022-09-04T14:59:43.390Z,101490.00
2022-09-04T15:02:17.994Z,101488.69
2022-09-04T15:04:46.760Z,101487.06
2022-09-04T15:07:21.155Z,101486.31
2022-09-04T15:09:49.665Z,101486.91
2022-09-04T15:12:24.631Z,101486.91
2022-09-04T15:14:56.224Z,101488.22
2022-09-04T15:17:24.720Z,101480.00
2022-09-04T15:19:53.989Z,101479.66
2022-09-04T15:22:22.966Z,101478.47
2022-09-04T15:24:52.480Z,101482.56
2022-09-04T15:27:21.413Z,101485.53
2022-09-04T15:29:58.295Z,101481.72
2022-09-04T15:32:27.649Z,101479.00
2022-09-04T15:35:05.887Z,101473.22
2022-09-04T15:37:32.617Z,101477.78
2022-09-04T15:40:03.818Z,101475.22
2022-09-04T15:42:33.427Z,101475.44
2022-09-04T15:45:00.427Z,101476.41
2022-09-04T15:47:44.109Z,101477.44
2022-09-04T15:50:18.447Z,101481.97
2022-09-04T15:52:48.396Z,101483.56
2022-09-04T15:55:21.030Z,101476.94
2022-09-04T15:57:52.062Z,101477.13
2022-09-04T16:00:21.568Z,101480.56
2022-09-04T16:02:53.730Z,101473.13
2022-09-04T16:05:24.063Z,101473.34
2022-09-04T16:07:55.428Z,101467.09
2022-09-04T16:10:23.743Z,101473.34
2022-09-04T16:12:51.785Z,101476.66
2022-09-04T16:15:21.091Z,101468.59
2022-09-04T16:17:50.147Z,101474.41
2022-09-04T16:20:21.679Z,101476.03
2022-09-04T16:22:51.195Z,101480.16
2022-09-04T16:25:23.670Z,101472.47
2022-09-04T16:27:53.532Z,101471.69
2022-09-04T16:30:30.634Z,101465.03
2022-09-04T16:32:57.675Z,101463.63
2022-09-04T16:35:27.223Z,101471.72
2022-09-04T16:37:58.847Z,101462.16
2022-09-04T16:40:29.219Z,101460.97
2022-09-04T16:42:58.458Z,101459.84
2022-09-04T16:45:27.477Z,101461.16
2022-09-04T16:47:55.668Z,101460.22
2022-09-04T16:50:24.896Z,101468.34
2022-09-04T16:53:13.760Z,101461.97
2022-09-04T16:55:44.784Z,101461.66
2022-09-04T16:58:35.127Z,101464.84
2022-09-04T17:01:13.842Z,101462.84
2022-09-04T17:03:42.951Z,101456.75
2022-09-04T17:06:16.186Z,101463.16
2022-09-04T17:08:50.470Z,101460.56
2022-09-04T17:11:20.411Z,101469.72
2022-09-04T17:13:48.341Z,101463.59
2022-09-04T17:16:18.666Z,101462.09
2022-09-04T17:18:46.363Z,101466.59
2022-09-04T17:26:16.719Z,101466.75
2022-09-04T17:28:56.486Z,101466.91
2022-09-04T17:29:15.426Z,101460.75
2022-09-04T17:29:48.801Z,101462.81
2022-09-04T17:32:32.181Z,101458.56
2022-09-04T17:40:42.888Z,101467.06
2022-09-04T17:40:49.400Z,101471.81
2022-09-04T17:41:38.039Z,101472.19
2022-09-04T17:43:52.379Z,101464.38
2022-09-04T17:46:24.625Z,101472.06
2022-09-04T17:48:51.103Z,101476.56
2022-09-04T17:51:21.540Z,101477.75
2022-09-04T17:53:51.318Z,101485.44
2022-09-04T17:56:21.474Z,101484.09
2022-09-04T17:58:49.486Z,101489.28
2022-09-04T18:01:19.867Z,101484.66
2022-09-04T18:04:04.215Z,101485.47
2022-09-04T18:06:39.113Z,101485.44
2022-09-04T18:09:09.165Z,101482.44
2022-09-04T18:11:39.401Z,101492.22
2022-09-04T18:14:12.652Z,101485.88
2022-09-04T18:17:11.729Z,101492.09
2022-09-04T18:19:42.236Z,101496.25
2022-09-04T18:22:26.676Z,101493.47
2022-09-04T18:25:00.679Z,101497.41
2022-09-04T18:27:49.358Z,101508.34
2022-09-04T18:37:08.433Z,101513.69
2022-09-04T18:37:20.113Z,101520.78
2022-09-04T18:37:23.603Z,101515.69
2022-09-04T18:39:22.145Z,101520.25
2022-09-04T18:48:30.488Z,101524.94
2022-09-04T18:50:38.073Z,101525.50
2022-09-04T18:50:51.325Z,101532.13
2022-09-04T18:51:14.602Z,101526.81
2022-09-04T18:53:27.012Z,101531.88
2022-09-04T18:55:55.599Z,101531.94
2022-09-04T18:58:40.807Z,101534.44
2022-09-04T19:01:11.907Z,101539.50
2022-09-04T19:03:41.645Z,101539.97
2022-09-04T19:06:11.331Z,101543.13
2022-09-04T19:08:41.263Z,101541.69
2022-09-04T19:11:20.508Z,101552.72
2022-09-04T19:13:50.288Z,101552.97
2022-09-04T19:16:22.537Z,101547.78
2022-09-04T19:18:51.088Z,101553.00
2022-09-04T19:21:30.939Z,101550.94
2022-09-04T19:24:00.186Z,101552.59
2022-09-04T19:26:33.349Z,101551.97
2022-09-04T19:29:05.589Z,101546.38
2022-09-04T19:31:35.005Z,101556.38
2022-09-04T19:34:08.469Z,101549.72
2022-09-04T19:36:37.598Z,101552.22
2022-09-04T19:46:00.423Z,101557.22
2022-09-04T19:46:05.892Z,101552.22
2022-09-04T19:46:19.715Z,101551.41
2022-09-04T19:47:49.286Z,101557.19
2022-09-04T19:53:21.408Z,101560.50
2022-09-04T19:53:29.900Z,101551.97
2022-09-04T19:55:56.402Z,101551.34
2022-09-04T19:58:25.504Z,101553.22
2022-09-04T20:00:55.449Z,101558.22
2022-09-04T20:03:30.059Z,101555.72
2022-09-04T20:06:00.509Z,101561.13
2022-09-04T20:08:47.962Z,101551.38
2022-09-04T20:11:27.244Z,101557.97
2022-09-04T20:14:13.908Z,101559.44
2022-09-04T20:16:48.534Z,101556.94
2022-09-04T20:19:27.917Z,101553.59
2022-09-04T20:21:57.287Z,101556.69
2022-09-04T20:24:25.645Z,101566.66
2022-09-04T20:26:53.935Z,101567.09
2022-09-04T20:29:23.095Z,101572.69
2022-09-04T20:31:52.989Z,101565.81
2022-09-04T20:34:29.620Z,101573.47
2022-09-04T20:37:01.625Z,101572.84
2022-09-04T20:39:32.253Z,101577.38
2022-09-04T20:42:00.683Z,101573.81
2022-09-04T20:44:30.491Z,101580.84
2022-09-04T20:52:45.270Z,101576.44
2022-09-04T20:52:59.376Z,101575.19
2022-09-04T20:53:07.937Z,101573.91
2022-09-04T20:55:37.099Z,101581.56
2022-09-04T21:03:09.097Z,101581.78
2022-09-04T21:03:17.938Z,101573.44
2022-09-04T21:04:07.957Z,101571.56
2022-09-04T21:06:42.162Z,101574.63
2022-09-04T21:09:23.387Z,101580.03
2022-09-04T21:11:51.615Z,101578.34
2022-09-04T21:14:20.460Z,101575.03
2022-09-04T21:17:34.568Z,101579.16
2022-09-04T21:20:04.538Z,101580.78
2022-09-04T21:22:39.089Z,101587.81
2022-09-04T21:25:18.683Z,101579.88
2022-09-04T21:28:03.836Z,101587.03
2022-09-04T21:30:52.816Z,101586.38
2022-09-04T21:33:26.655Z,101582.66
2022-09-04T21:36:25.558Z,101578.94
2022-09-04T21:38:58.047Z,101585.47
2022-09-04T21:41:29.217Z,101588.81
2022-09-04T21:44:19.496Z,101582.88
2022-09-04T21:46:55.222Z,101583.81
2022-09-04T21:49:36.565Z,101588.38
2022-09-04T21:52:14.480Z,101583.25
2022-09-04T21:58:47.456Z,101580.56
2022-09-04T22:02:45.028Z,101581.84
2022-09-04T22:03:55.114Z,101577.50
2022-09-04T22:06:41.062Z,101586.03
2022-09-04T22:13:31.649Z,101588.72
2022-09-04T22:13:43.377Z,101581.66
2022-09-04T22:15:02.568Z,101588.47
2022-09-04T22:17:41.151Z,101590.56
2022-09-04T22:20:25.383Z,101589.09
2022-09-04T22:23:09.960Z,101596.13
2022-09-04T22:25:46.515Z,101598.72
2022-09-04T22:28:36.862Z,101602.41
2022-09-04T22:31:17.749Z,101598.97
2022-09-04T22:34:15.369Z,101601.72
2022-09-04T22:37:00.749Z,101596.81
2022-09-04T22:39:39.420Z,101600.69
2022-09-04T22:42:20.201Z,101604.34
2022-09-04T22:44:57.077Z,101602.19
2022-09-04T22:47:55.863Z,101601.44
2022-09-04T22:50:49.659Z,101613.47
2022-09-04T22:53:28.660Z,101602.41
2022-09-04T22:55:56.507Z,101603.63
2022-09-04T22:58:51.283Z,101608.59
2022-09-04T23:01:36.257Z,101608.94
2022-09-04T23:04:11.393Z,101615.53
2022-09-04T23:13:01.370Z,101614.06
2022-09-04T23:13:52.745Z,101612.78
2022-09-04T23:14:00.284Z,101612.97
2022-09-04T23:15:54.966Z,101610.84
2022-09-04T23:21:13.605Z,101613.63
2022-09-04T23:26:37.308Z,101603.81
2022-09-04T23:26:45.330Z,101610.41
2022-09-04T23:27:31.819Z,101606.22
2022-09-04T23:30:03.249Z,101609.50
2022-09-04T23:32:37.428Z,101612.91
2022-09-04T23:35:15.716Z,101611.63
2022-09-04T23:38:00.136Z,101610.22
2022-09-04T23:40:36.639Z,101609.31
2022-09-04T23:43:18.918Z,101604.50
2022-09-04T23:46:01.359Z,101606.38
2022-09-04T23:48:36.742Z,101605.72
2022-09-04T23:51:11.652Z,101602.38
2022-09-04T23:53:44.432Z,101611.28
2022-09-04T23:56:21.535Z,101608.59
2022-09-04T23:58:56.374Z,101602.56
